Time;durP1;ratioP1;P1;durP2;ratioP2;P2;SDS_P1;SDS_P2;PMS_P1;PMS_P2;Temp;Humidity;BMP_temperature;BMP_pressure;BME280_temperature;BME280_humidity;BME280_pressure;Samples;Min_cycle;Max_cycle;Signal;HPM_P1;HPM_P2
2022/09/26 00:00:48;;;;;;;2.53;0.80;;;17.00;69.60;;;;;;10363854;28;20053;-35
2022/09/26 00:05:49;;;;;;;3.83;0.70;;;16.30;69.20;;;;;;10363541;28;20124;-35
2022/09/26 00:10:57;;;;;;;2.53;0.60;;;17.20;67.50;;;;;;10360602;28;20141;-36
2022/09/26 00:16:00;;;;;;;1.95;0.88;;;17.60;71.90;;;;;;10358012;28;20054;-36
2022/09/26 00:21:06;;;;;;;3.33;0.75;;;17.60;63.70;;;;;;10359801;28;20123;-36
2022/09/26 00:26:09;;;;;;;2.80;0.80;;;17.70;64.90;;;;;;10360616;28;20104;-31
2022/09/26 00:31:15;;;;;;;0.85;0.70;;;16.90;65.50;;;;;;10359204;28;20081;-36
2022/09/26 00:36:16;;;;;;;2.13;0.80;;;17.50;61.50;;;;;;10360173;28;20046;-36
2022/09/26 00:41:19;;;;;;;2.83;0.80;;;16.60;63.90;;;;;;10358733;28;20046;-37
2022/09/26 00:46:30;;;;;;;1.70;0.40;;;17.40;66.40;;;;;;10357399;28;20499;-36
2022/09/26 00:51:33;;;;;;;2.00;0.60;;;16.90;64.80;;;;;;10361424;28;20045;-37
2022/09/26 00:56:38;;;;;;;1.08;0.52;;;16.50;65.10;;;;;;10361050;28;20049;-35
2022/09/26 01:01:41;;;;;;;7.80;1.00;;;16.20;65.00;;;;;;10359887;28;20140;-36
2022/09/26 01:06:44;;;;;;;4.50;0.70;;;16.40;67.60;;;;;;10352323;28;20113;-35
2022/09/26 01:11:46;;;;;;;0.80;0.50;;;16.60;66.10;;;;;;10358471;28;20415;-35
2022/09/26 01:16:51;;;;;;;2.30;0.60;;;16.90;71.20;;;;;;10360392;28;20512;-35
2022/09/26 01:22:23;;;;;;;0.95;0.50;;;17.70;69.20;;;;;;10359352;28;20053;-32
2022/09/26 01:27:50;;;;;;;3.83;0.52;;;19.60;63.30;;;;;;10360845;28;20049;-36
2022/09/26 01:33:21;;;;;;;1.98;0.60;;;19.00;62.30;;;;;;10359610;28;20049;-36
2022/09/26 01:38:29;;;;;;;4.40;0.75;;;19.60;61.80;;;;;;10358147;28;20133;-35
2022/09/26 01:43:38;;;;;;;1.85;0.63;;;19.80;60.60;;;;;;10358700;28;20455;-36
2022/09/26 01:48:47;;;;;;;1.30;0.70;;;19.10;64.00;;;;;;10358502;28;20468;-36
2022/09/26 01:53:55;;;;;;;2.25;0.82;;;18.80;65.30;;;;;;10356783;28;20085;-35
2022/09/26 01:59:01;;;;;;;1.27;0.65;;;19.20;62.50;;;;;;10357307;28;20120;-35
2022/09/26 02:04:09;;;;;;;1.08;0.50;;;19.00;64.50;;;;;;10359017;28;20510;-35
2022/09/26 02:09:16;;;;;;;2.65;1.23;;;17.60;70.00;;;;;;10356423;28;20052;-36
2022/09/26 02:14:25;;;;;;;2.33;0.75;;;17.20;70.10;;;;;;10359243;28;20099;-35
2022/09/26 02:19:32;;;;;;;3.40;1.70;;;18.00;67.20;;;;;;10357671;28;20088;-36
2022/09/26 02:24:34;;;;;;;2.45;0.82;;;17.50;67.50;;;;;;10357258;28;20109;-34
2022/09/26 02:29:36;;;;;;;1.58;0.70;;;16.80;70.50;;;;;;10357571;28;20446;-36
2022/09/26 02:34:41;;;;;;;3.42;0.90;;;17.40;71.30;;;;;;10357974;28;20088;-38
2022/09/26 02:39:45;;;;;;;3.45;1.08;;;17.20;69.70;;;;;;10357043;28;20173;-33
2022/09/26 02:45:13;;;;;;;2.15;0.88;;;17.60;69.00;;;;;;10356326;28;20053;-34
2022/09/26 02:50:30;;;;;;;1.17;0.85;;;18.00;67.90;;;;;;10355915;28;20105;-35
2022/09/26 02:55:39;;;;;;;1.50;0.60;;;18.00;67.70;;;;;;10361122;28;20045;-36
2022/09/26 03:00:53;;;;;;;5.30;1.20;;;17.70;68.40;;;;;;10364264;28;20108;-35
2022/09/26 03:05:58;;;;;;;3.08;0.70;;;16.70;70.80;;;;;;10364117;28;20120;-35
2022/09/26 03:11:04;;;;;;;3.55;0.98;;;16.80;71.90;;;;;;10362831;28;20057;-36
2022/09/26 03:16:06;;;;;;;5.97;1.77;;;17.40;70.20;;;;;;10364876;28;20156;-34
2022/09/26 03:21:10;;;;;;;5.57;1.48;;;16.40;71.90;;;;;;10365085;28;20046;-39
2022/09/26 03:26:14;;;;;;;5.30;0.82;;;17.10;71.60;;;;;;10364498;28;20450;-36
2022/09/26 03:31:16;;;;;;;1.85;0.55;;;16.20;74.50;;;;;;10365189;28;20077;-37
2022/09/26 03:36:21;;;;;;;1.60;0.80;;;17.50;69.60;;;;;;10363434;28;20626;-35
2022/09/26 03:41:23;;;;;;;2.50;0.80;;;17.10;70.60;;;;;;10362348;28;20131;-35
2022/09/26 03:46:25;;;;;;;5.03;1.23;;;17.00;71.80;;;;;;10363026;28;20041;-35
2022/09/26 03:51:28;;;;;;;3.37;0.90;;;15.90;74.40;;;;;;10357563;28;20481;-35
2022/09/26 03:56:30;;;;;;;5.40;1.23;;;15.80;75.50;;;;;;10353231;28;20085;-35
2022/09/26 04:01:32;;;;;;;1.70;1.08;;;15.80;74.90;;;;;;10351541;28;20046;-35
2022/09/26 04:06:36;;;;;;;2.47;0.60;;;16.80;72.10;;;;;;10355477;28;20054;-36
2022/09/26 04:11:38;;;;;;;1.38;0.80;;;17.60;70.40;;;;;;10348619;28;20050;-35
2022/09/26 04:16:40;;;;;;;2.43;0.90;;;17.80;68.80;;;;;;10341409;28;20062;-35
2022/09/26 04:21:43;;;;;;;1.30;0.80;;;16.90;70.80;;;;;;10341902;28;20062;-36
2022/09/26 04:26:45;;;;;;;0.80;0.50;;;17.10;71.00;;;;;;10343879;28;20053;-36
2022/09/26 04:31:47;;;;;;;3.63;1.20;;;16.80;73.50;;;;;;10335321;28;20058;-36
2022/09/26 04:36:51;;;;;;;1.40;0.67;;;16.00;73.90;;;;;;10336083;28;20082;-36
2022/09/26 04:41:53;;;;;;;4.43;1.30;;;15.60;77.60;;;;;;10335232;28;20054;-35
2022/09/26 04:46:55;;;;;;;3.23;1.13;;;15.80;75.40;;;;;;10344493;28;20065;-36
2022/09/26 04:51:58;;;;;;;3.13;1.63;;;16.90;71.50;;;;;;10338982;28;20078;-36
2022/09/26 04:57:00;;;;;;;2.42;0.98;;;15.40;77.40;;;;;;10362484;28;20144;-35
2022/09/26 05:02:06;;;;;;;5.60;1.20;;;16.80;72.40;;;;;;10372463;28;20417;-45
2022/09/26 05:07:10;;;;;;;1.75;0.95;;;14.90;79.00;;;;;;10362846;28;20121;-44
2022/09/26 05:12:12;;;;;;;2.80;1.20;;;16.40;74.30;;;;;;10356208;28;20050;-45
2022/09/26 05:17:14;;;;;;;3.63;0.87;;;15.30;78.40;;;;;;10365197;28;20070;-46
2022/09/26 05:22:17;;;;;;;3.75;1.02;;;16.10;74.10;;;;;;10356538;28;20542;-44
2022/09/26 05:27:20;;;;;;;1.60;0.90;;;16.50;72.90;;;;;;10347541;28;20076;-44
2022/09/26 05:32:21;;;;;;;3.00;0.90;;;17.00;73.00;;;;;;10359408;28;20037;-45
2022/09/26 05:37:24;;;;;;;3.50;1.00;;;15.70;75.00;;;;;;10360360;28;20082;-43
2022/09/26 05:42:26;;;;;;;2.47;1.13;;;16.30;73.50;;;;;;10358513;28;20117;-40
2022/09/26 05:47:31;;;;;;;1.47;0.70;;;16.10;72.10;;;;;;10349196;28;20070;-38
2022/09/26 05:52:34;;;;;;;2.17;1.10;;;16.90;71.20;;;;;;10339762;28;20502;-43
2022/09/26 05:57:36;;;;;;;5.65;1.20;;;15.30;75.60;;;;;;10347086;28;20054;-44
2022/09/26 06:02:38;;;;;;;2.93;1.10;;;15.60;75.10;;;;;;10357660;28;20068;-40
2022/09/26 06:07:41;;;;;;;4.57;1.60;;;16.30;73.30;;;;;;10368807;28;20113;-42
2022/09/26 06:12:43;;;;;;;4.40;1.42;;;16.10;73.00;;;;;;10351191;28;20108;-44
2022/09/26 06:17:46;;;;;;;9.03;1.47;;;15.60;75.70;;;;;;10353530;28;20124;-42
2022/09/26 06:22:49;;;;;;;6.20;1.42;;;16.10;74.50;;;;;;10348915;28;20050;-44
2022/09/26 06:27:55;;;;;;;5.40;1.85;;;15.00;78.30;;;;;;10355396;28;20491;-44
2022/09/26 06:32:57;;;;;;;3.17;0.93;;;14.20;82.60;;;;;;10361163;28;20049;-42
2022/09/26 06:38:01;;;;;;;8.43;1.60;;;15.00;80.20;;;;;;10361431;28;20050;-46
2022/09/26 06:43:03;;;;;;;5.68;1.60;;;15.40;78.10;;;;;;10359028;28;20046;-45
2022/09/26 06:48:05;;;;;;;8.63;1.65;;;15.20;78.50;;;;;;10347272;28;20157;-45
2022/09/26 06:53:09;;;;;;;5.13;2.67;;;15.40;77.90;;;;;;10356786;28;20446;-47
2022/09/26 06:58:10;;;;;;;5.07;1.65;;;15.00;79.40;;;;;;10347713;28;20465;-41
2022/09/26 07:03:14;;;;;;;3.63;1.60;;;15.50;76.40;;;;;;10357158;28;20081;-43
2022/09/26 07:08:17;;;;;;;2.75;1.55;;;15.10;78.90;;;;;;10346651;28;20049;-43
2022/09/26 07:13:19;;;;;;;8.45;2.15;;;15.80;76.00;;;;;;10345052;28;20130;-44
2022/09/26 07:18:21;;;;;;;6.97;1.60;;;15.00;80.00;;;;;;10358752;28;20151;-45
2022/09/26 07:23:24;;;;;;;4.47;1.27;;;15.80;75.60;;;;;;10350243;28;20047;-44
2022/09/26 07:28:26;;;;;;;5.25;1.90;;;15.90;76.20;;;;;;10348394;28;20505;-45
2022/09/26 07:33:28;;;;;;;5.82;1.52;;;14.40;83.50;;;;;;10346079;28;20480;-44
2022/09/26 07:38:31;;;;;;;7.97;2.30;;;16.20;75.80;;;;;;10359977;28;20113;-44
2022/09/26 07:43:33;;;;;;;7.07;1.65;;;14.30;85.00;;;;;;10366529;28;20073;-43
2022/09/26 07:53:55;;;;;;;5.85;1.70;;;14.80;82.40;;;;;;10343455;28;20149;-43
2022/09/26 07:58:57;;;;;;;6.20;2.22;;;14.50;84.90;;;;;;10348871;28;20477;-43
2022/09/26 08:03:59;;;;;;;6.67;2.20;;;14.70;81.80;;;;;;10360745;28;20724;-40
2022/09/26 08:09:03;;;;;;;10.93;1.80;;;14.00;89.50;;;;;;10343651;28;20046;-45
2022/09/26 08:14:05;;;;;;;10.57;2.30;;;14.10;90.10;;;;;;10341811;28;20077;-42
2022/09/26 08:19:07;;;;;;;4.90;2.50;;;14.00;86.70;;;;;;10366009;28;20065;-45
2022/09/26 08:24:10;;;;;;;6.82;2.40;;;14.80;84.60;;;;;;10368705;28;20068;-44
2022/09/26 08:29:13;;;;;;;5.95;3.15;;;15.30;83.70;;;;;;10357676;28;20053;-41
2022/09/26 08:34:15;;;;;;;7.88;2.35;;;15.80;80.70;;;;;;10349506;28;20081;-43
2022/09/26 08:39:18;;;;;;;6.73;2.90;;;15.10;82.50;;;;;;10367914;28;20097;-40
2022/09/26 08:44:36;;;;;;;4.45;2.45;;;15.80;78.70;;;;;;10358873;28;20601;-45
2022/09/26 08:49:47;;;;;;;4.60;2.33;;;16.90;73.70;;;;;;10351443;28;20093;-45
2022/09/26 08:54:52;;;;;;;5.88;2.00;;;15.10;82.20;;;;;;10359959;28;20049;-43
2022/09/26 08:59:54;;;;;;;4.53;2.38;;;15.10;82.30;;;;;;10354204;28;20161;-45
2022/09/26 09:05:01;;;;;;;5.53;2.57;;;15.40;84.60;;;;;;10353373;28;20460;-45
2022/09/26 09:10:07;;;;;;;9.82;3.38;;;16.10;78.00;;;;;;10345583;28;20128;-41
2022/09/26 09:15:24;;;;;;;5.88;1.67;;;15.30;84.00;;;;;;10362173;28;20054;-44
2022/09/26 09:20:37;;;;;;;6.00;3.47;;;14.80;85.30;;;;;;10359571;28;20707;-42
2022/09/26 09:25:42;;;;;;;;;;;15.00;84.90;;;;;;10357569;28;20116;-43
2022/09/26 09:30:47;;;;;;;8.18;1.88;;;14.90;86.00;;;;;;10359045;28;19936;-44
2022/09/26 09:35:52;;;;;;;9.85;2.70;;;14.90;86.80;;;;;;10343108;28;20502;-44
2022/09/26 09:41:02;;;;;;;4.40;1.35;;;15.10;85.30;;;;;;10349459;28;20061;-40
2022/09/26 09:46:10;;;;;;;3.50;0.93;;;14.80;85.80;;;;;;10357350;28;20598;-43
2022/09/26 09:51:24;;;;;;;4.13;1.33;;;13.80;94.60;;;;;;10360657;28;20105;-43
2022/09/26 09:56:39;;;;;;;8.75;3.28;;;14.90;89.70;;;;;;10349588;28;20100;-42
2022/09/26 10:01:45;;;;;;;9.73;2.53;;;16.60;82.60;;;;;;10349582;28;20056;-46
2022/09/26 10:06:48;;;;;;;14.93;7.18;;;16.30;82.20;;;;;;10371999;28;20157;-45
2022/09/26 10:11:53;;;;;;;16.95;7.55;;;16.90;75.20;;;;;;10367334;28;20049;-43
2022/09/26 10:17:20;;;;;;;11.43;4.90;;;17.00;75.90;;;;;;10346346;28;20092;-43
2022/09/26 10:22:31;;;;;;;7.57;3.42;;;16.90;75.80;;;;;;10349014;28;20139;-44
2022/09/26 10:27:37;;;;;;;7.00;2.85;;;16.40;82.00;;;;;;10342456;28;20045;-42
2022/09/26 10:32:45;;;;;;;9.00;4.75;;;15.80;81.90;;;;;;10360351;28;20475;-45
2022/09/26 10:37:57;;;;;;;9.55;4.65;;;17.70;72.50;;;;;;10359050;28;20161;-43
2022/09/26 10:43:20;;;;;;;4.60;2.37;;;18.00;71.20;;;;;;10370758;28;20747;-43
2022/09/26 10:48:26;;;;;;;;;;;17.30;76.90;;;;;;10352440;28;20047;-44
2022/09/26 10:53:35;;;;;;;10.73;5.07;;;17.40;72.60;;;;;;10359629;28;19922;-45
2022/09/26 10:58:45;;;;;;;6.40;3.30;;;18.30;69.90;;;;;;10351454;28;20545;-44
2022/09/26 11:03:47;;;;;;;16.85;6.85;;;17.20;73.70;;;;;;10361168;28;20128;-44
2022/09/26 11:08:55;;;;;;;11.27;5.35;;;18.20;68.80;;;;;;10350325;28;20103;-45
2022/09/26 11:14:04;;;;;;;12.30;6.35;;;18.00;70.50;;;;;;10346175;28;20049;-45
2022/09/26 11:19:14;;;;;;;17.48;8.45;;;17.80;70.20;;;;;;10361711;28;20093;-46
2022/09/26 11:24:21;;;;;;;12.02;4.40;;;18.90;66.60;;;;;;10370286;28;20132;-43
2022/09/26 11:29:40;;;;;;;12.07;5.53;;;17.30;75.50;;;;;;10359460;28;20061;-44
2022/09/26 11:34:42;;;;;;;11.63;6.00;;;18.50;78.00;;;;;;10353051;28;20046;-45
2022/09/26 11:39:57;;;;;;;15.10;7.60;;;17.90;72.80;;;;;;10373756;28;20050;-45
2022/09/26 11:45:04;;;;;;;12.77;6.10;;;18.20;69.50;;;;;;10361620;28;20053;-40
2022/09/26 11:50:34;;;;;;;6.53;2.45;;;18.30;68.70;;;;;;10367079;28;20526;-44
2022/09/26 11:55:50;;;;;;;12.60;5.68;;;17.30;80.60;;;;;;10358663;28;20085;-46
2022/09/26 12:00:59;;;;;;;12.45;3.47;;;18.20;70.70;;;;;;10369361;28;20541;-45
2022/09/26 12:06:10;;;;;;;7.35;3.10;;;18.20;71.10;;;;;;10355328;28;20085;-46
2022/09/26 12:11:21;;;;;;;22.13;1.90;;;17.10;76.50;;;;;;10354525;28;20046;-43
2022/09/26 12:16:34;;;;;;;16.67;3.08;;;16.90;77.70;;;;;;10347435;28;20108;-45
2022/09/26 12:21:41;;;;;;;;;;;16.70;80.20;;;;;;10358488;28;20414;-43
2022/09/26 12:26:50;;;;;;;10.27;2.97;;;16.80;78.80;;;;;;10347376;28;19964;-41
2022/09/26 12:32:14;;;;;;;12.25;2.65;;;16.80;82.90;;;;;;10353020;28;20056;-45
2022/09/26 12:37:39;;;;;;;9.30;2.50;;;16.50;83.90;;;;;;10353469;28;20070;-45
2022/09/26 12:43:00;;;;;;;12.77;2.78;;;16.90;84.40;;;;;;10343671;28;20129;-46
2022/09/26 12:48:23;;;;;;;15.18;2.67;;;17.20;82.50;;;;;;10351416;28;20046;-45
2022/09/26 12:53:51;;;;;;;7.47;1.58;;;17.20;88.30;;;;;;10366930;28;20164;-40
2022/09/26 12:59:05;;;;;;;9.45;1.50;;;17.40;81.80;;;;;;10349434;28;20136;-44
2022/09/26 13:04:51;;;;;;;6.63;2.13;;;17.00;82.80;;;;;;10349628;28;20084;-46
2022/09/26 13:10:17;;;;;;;7.07;1.85;;;17.70;78.90;;;;;;10361214;28;20108;-45
2022/09/26 13:15:25;;;;;;;5.60;2.30;;;17.90;77.10;;;;;;10346616;28;20042;-45
2022/09/26 13:20:35;;;;;;;6.93;1.70;;;18.20;76.20;;;;;;10318286;28;20592;-45
2022/09/26 13:25:44;;;;;;;12.65;2.70;;;17.80;80.40;;;;;;10310184;28;20055;-44
2022/09/26 13:30:49;;;;;;;11.15;2.28;;;17.00;80.90;;;;;;10312014;28;20051;-45
2022/09/26 13:35:55;;;;;;;20.08;3.50;;;16.90;82.90;;;;;;10306317;28;20081;-43
2022/09/26 13:41:06;;;;;;;8.73;2.30;;;16.40;82.70;;;;;;10304820;28;20051;-42
2022/09/26 13:46:17;;;;;;;14.15;4.95;;;17.60;79.20;;;;;;10314087;28;20046;-45
2022/09/26 13:51:24;;;;;;;15.98;6.32;;;18.90;72.70;;;;;;10340361;28;20046;-37
2022/09/26 13:56:48;;;;;;;19.40;3.03;;;19.00;71.30;;;;;;10305748;28;20185;-43
2022/09/26 14:02:22;;;;;;;17.27;3.55;;;18.20;73.90;;;;;;10312664;28;20055;-43
2022/09/26 14:13:17;;;;;;;34.00;4.97;;;17.40;78.00;;;;;;10306519;28;20526;-43
2022/09/26 14:18:43;;;;;;;23.70;3.90;;;16.20;83.10;;;;;;10347530;28;20446;-43
2022/09/26 14:23:48;;;;;;;16.17;2.67;;;16.50;85.80;;;;;;10344699;28;20470;-43
2022/09/26 14:28:52;;;;;;;10.13;2.40;;;16.80;83.30;;;;;;10340469;28;20074;-44
2022/09/26 14:34:13;;;;;;;10.35;2.05;;;16.70;84.40;;;;;;10332728;28;20586;-44
2022/09/26 14:39:32;;;;;;;10.10;2.33;;;17.10;77.30;;;;;;10337358;28;20411;-43
2022/09/26 14:44:34;;;;;;;9.27;2.88;;;17.40;75.80;;;;;;10335193;28;20093;-46
2022/09/26 14:49:36;;;;;;;13.20;2.83;;;18.40;69.30;;;;;;10330788;28;20129;-45
2022/09/26 14:54:40;;;;;;;11.00;2.00;;;18.60;69.40;;;;;;10349894;28;20368;-44
2022/09/26 14:59:43;;;;;;;13.85;2.25;;;18.80;63.90;;;;;;10347793;28;20107;-39
2022/09/26 15:04:49;;;;;;;8.98;2.40;;;19.10;65.60;;;;;;10354358;28;20085;-45
2022/09/26 15:09:57;;;;;;;7.93;1.88;;;18.20;72.30;;;;;;10337611;28;20129;-44
2022/09/26 15:15:12;;;;;;;6.93;1.85;;;18.00;73.10;;;;;;10345953;28;20050;-44
2022/09/26 15:20:18;;;;;;;7.10;1.48;;;18.10;71.00;;;;;;10358733;28;20133;-46
2022/09/26 15:25:24;;;;;;;8.27;1.77;;;19.30;65.80;;;;;;10342633;28;20070;-44
2022/09/26 15:30:36;;;;;;;9.10;1.40;;;18.80;68.50;;;;;;10342498;28;20038;-46
2022/09/26 15:35:38;;;;;;;8.38;1.98;;;19.50;66.40;;;;;;10334103;28;20050;-42
2022/09/26 15:40:41;;;;;;;9.98;1.52;;;19.00;68.50;;;;;;10328572;28;20136;-35
2022/09/26 15:45:56;;;;;;;7.07;1.45;;;18.30;69.40;;;;;;10367306;28;20042;-35
2022/09/26 15:51:04;;;;;;;8.10;1.55;;;18.40;69.20;;;;;;10356318;28;20046;-35
2022/09/26 15:56:11;;;;;;;9.88;1.42;;;18.90;67.20;;;;;;10357536;28;20498;-37
2022/09/26 16:01:15;;;;;;;7.05;1.27;;;18.30;68.90;;;;;;10350148;28;20046;-37
2022/09/26 16:06:28;;;;;;;9.23;1.10;;;18.90;68.80;;;;;;10347925;28;20050;-38
2022/09/26 16:11:32;;;;;;;11.38;1.65;;;18.10;70.80;;;;;;10357138;28;20051;-37
2022/09/26 16:16:35;;;;;;;8.60;1.73;;;18.30;72.60;;;;;;10345147;28;20053;-35
2022/09/26 16:21:38;;;;;;;7.25;1.58;;;18.20;72.20;;;;;;10347595;28;20046;-38
2022/09/26 16:26:42;;;;;;;11.98;1.33;;;17.60;72.10;;;;;;10349230;28;20410;-34
2022/09/26 16:31:46;;;;;;;5.18;0.85;;;17.40;72.10;;;;;;10356294;28;20101;-37
2022/09/26 16:36:49;;;;;;;8.75;1.65;;;17.10;74.90;;;;;;10355273;28;20077;-37
2022/09/26 16:41:58;;;;;;;10.00;1.70;;;16.30;78.60;;;;;;10349646;28;20054;-36
2022/09/26 16:47:02;;;;;;;8.40;1.70;;;17.40;77.30;;;;;;10347801;28;20108;-35
2022/09/26 16:52:23;;;;;;;5.53;1.42;;;17.40;77.10;;;;;;10347390;28;20046;-36
2022/09/26 16:57:28;;;;;;;11.93;1.75;;;17.50;74.50;;;;;;10360833;28;20046;-38
2022/09/26 17:02:30;;;;;;;7.60;0.85;;;17.30;76.40;;;;;;10353604;28;20045;-35
2022/09/26 17:07:32;;;;;;;7.50;1.67;;;18.10;69.90;;;;;;10331226;28;20738;-35
2022/09/26 17:12:36;;;;;;;11.50;1.63;;;17.90;74.20;;;;;;10329440;28;20285;-37
2022/09/26 17:17:37;;;;;;;7.35;1.08;;;19.00;69.10;;;;;;10336462;28;20705;-37
2022/09/26 17:22:39;;;;;;;16.23;1.67;;;18.40;65.50;;;;;;10346128;28;20234;-37
2022/09/26 17:27:43;;;;;;;9.03;2.30;;;17.30;76.80;;;;;;10342801;28;20046;-36
2022/09/26 17:32:48;;;;;;;7.95;1.38;;;17.90;74.70;;;;;;10343784;28;20140;-35
2022/09/26 17:37:50;;;;;;;9.38;1.75;;;17.60;74.20;;;;;;10343029;28;20046;-37
2022/09/26 17:42:58;;;;;;;9.57;1.35;;;18.50;70.70;;;;;;10347842;28;20129;-36
2022/09/26 17:48:02;;;;;;;7.88;1.55;;;18.80;68.90;;;;;;10333854;28;20049;-35
2022/09/26 17:53:06;;;;;;;10.23;1.10;;;16.00;78.90;;;;;;10349875;28;20045;-39
2022/09/26 17:58:11;;;;;;;2.05;0.73;;;15.70;81.20;;;;;;10346940;28;20080;-34
2022/09/26 18:03:19;;;;;;;10.23;1.17;;;14.80;87.00;;;;;;10355435;28;20050;-36
2022/09/26 18:08:24;;;;;;;13.10;1.13;;;15.00;87.10;;;;;;10344459;28;20498;-35
2022/09/26 18:13:30;;;;;;;8.40;1.02;;;14.90;87.00;;;;;;10368620;28;20046;-35
2022/09/26 18:18:33;;;;;;;4.57;1.08;;;14.60;88.80;;;;;;10362171;28;20104;-33
2022/09/26 18:23:41;;;;;;;9.18;1.80;;;14.80;89.30;;;;;;10340761;28;20050;-36
2022/09/26 18:28:44;;;;;;;9.88;2.25;;;14.60;88.20;;;;;;10352637;28;20420;-34
2022/09/26 18:33:46;;;;;;;14.38;1.65;;;14.90;90.00;;;;;;10351658;28;20128;-33
2022/09/26 18:38:48;;;;;;;3.43;1.23;;;15.30;87.20;;;;;;10359532;28;20042;-35
2022/09/26 18:43:52;;;;;;;8.57;2.30;;;16.90;80.10;;;;;;10365463;28;20520;-35
2022/09/26 18:48:57;;;;;;;12.93;2.60;;;17.90;75.40;;;;;;10351984;28;20481;-36
2022/09/26 18:54:00;;;;;;;6.85;1.00;;;18.20;73.40;;;;;;10350250;28;20054;-35
2022/09/26 18:59:04;;;;;;;15.93;2.25;;;15.50;85.60;;;;;;10365570;28;20037;-36
2022/09/26 19:04:11;;;;;;;4.20;1.13;;;14.60;89.20;;;;;;10360825;28;20045;-36
2022/09/26 19:09:15;;;;;;;5.85;1.08;;;15.50;84.80;;;;;;10351581;28;20101;-36
2022/09/26 19:14:22;;;;;;;8.98;1.05;;;14.90;85.70;;;;;;10353548;28;20046;-37
2022/09/26 19:19:25;;;;;;;7.72;1.33;;;13.90;90.60;;;;;;10356488;28;20096;-37
2022/09/26 19:24:33;;;;;;;11.85;1.23;;;16.60;81.30;;;;;;10355582;28;20164;-38
2022/09/26 19:29:41;;;;;;;1.90;0.68;;;15.40;81.80;;;;;;10363424;28;20042;-37
2022/09/26 19:34:45;;;;;;;11.02;1.10;;;16.80;80.80;;;;;;10347067;28;20050;-36
2022/09/26 19:39:47;;;;;;;9.10;0.77;;;16.60;79.30;;;;;;10350010;28;20054;-38
2022/09/26 19:44:50;;;;;;;2.37;0.70;;;15.40;87.30;;;;;;10366087;28;20049;-37
2022/09/26 19:49:52;;;;;;;11.40;1.38;;;15.40;84.50;;;;;;10359552;28;20077;-39
2022/09/26 19:54:54;;;;;;;8.70;0.90;;;14.50;88.90;;;;;;10358835;28;20610;-37
2022/09/26 19:59:57;;;;;;;13.23;1.45;;;14.10;88.60;;;;;;10360233;28;20049;-36
2022/09/26 20:04:59;;;;;;;4.93;0.77;;;14.40;86.10;;;;;;10358874;28;20062;-39
2022/09/26 20:10:01;;;;;;;8.25;0.85;;;14.20;88.60;;;;;;10353790;28;20140;-36
2022/09/26 20:15:05;;;;;;;10.30;1.37;;;16.20;81.30;;;;;;10353841;28;20052;-35
2022/09/26 20:20:07;;;;;;;13.68;1.40;;;15.30;83.70;;;;;;10354016;28;20570;-37
2022/09/26 20:25:15;;;;;;;6.65;1.10;;;15.70;83.50;;;;;;10344833;28;20885;-39
2022/09/26 20:35:42;;;;;;;4.25;0.98;;;14.20;84.90;;;;;;10349159;28;20042;-37
2022/09/26 20:40:44;;;;;;;5.85;1.23;;;14.80;84.60;;;;;;10361307;28;20163;-38
2022/09/26 20:45:48;;;;;;;2.42;0.50;;;14.60;84.90;;;;;;10351610;28;20141;-38
2022/09/26 20:50:50;;;;;;;16.38;1.17;;;16.20;78.80;;;;;;10356277;28;20057;-38
2022/09/26 20:55:53;;;;;;;9.52;1.33;;;15.00;78.30;;;;;;10365232;28;20105;-35
2022/09/26 21:00:58;;;;;;;5.28;0.77;;;15.50;82.20;;;;;;10351028;28;20129;-38
2022/09/26 21:06:00;;;;;;;6.93;0.50;;;14.80;82.70;;;;;;10360714;28;20056;-38
2022/09/26 21:11:02;;;;;;;4.63;0.80;;;15.10;80.80;;;;;;10365292;28;20085;-38
2022/09/26 21:16:05;;;;;;;6.80;1.00;;;15.50;81.20;;;;;;10373100;28;20077;-38
2022/09/26 21:21:13;;;;;;;5.78;0.95;;;14.30;85.00;;;;;;10348781;28;20074;-39
2022/09/26 21:26:18;;;;;;;5.70;0.90;;;14.40;84.80;;;;;;10353259;28;20053;-39
2022/09/26 21:31:23;;;;;;;6.88;1.10;;;16.20;81.50;;;;;;10349956;28;20049;-37
2022/09/26 21:36:29;;;;;;;9.60;1.50;;;16.20;78.20;;;;;;10366481;28;20132;-36
2022/09/26 21:41:31;;;;;;;4.10;1.00;;;15.30;77.50;;;;;;10342520;28;20046;-38
2022/09/26 21:46:34;;;;;;;6.17;0.97;;;15.30;82.00;;;;;;10336847;28;20050;-38
2022/09/26 21:51:37;;;;;;;7.45;0.98;;;15.00;78.90;;;;;;10355183;28;20459;-37
2022/09/26 21:56:45;;;;;;;;;;;14.40;84.50;;;;;;10350518;28;20169;-39
2022/09/26 22:01:48;;;;;;;5.78;0.68;;;15.00;81.90;;;;;;10350041;28;20405;-36
2022/09/26 22:06:50;;;;;;;5.70;1.27;;;15.00;80.70;;;;;;10353721;28;20070;-37
2022/09/26 22:11:52;;;;;;;11.30;1.27;;;14.90;83.00;;;;;;10371965;28;20077;-38
2022/09/26 22:16:56;;;;;;;6.10;0.77;;;14.10;85.70;;;;;;10360291;28;20049;-39
2022/09/26 22:21:58;;;;;;;5.22;1.20;;;13.80;85.80;;;;;;10352022;28;20462;-38
2022/09/26 22:27:00;;;;;;;5.90;0.77;;;14.60;83.30;;;;;;10341363;28;20499;-37
2022/09/26 22:32:03;;;;;;;11.40;1.10;;;15.20;80.10;;;;;;10355809;28;20073;-37
2022/09/26 22:37:05;;;;;;;7.15;1.35;;;16.10;75.40;;;;;;10355832;28;20093;-36
2022/09/26 22:42:08;;;;;;;7.78;0.80;;;14.70;83.00;;;;;;10359809;28;20137;-38
2022/09/26 22:47:11;;;;;;;15.52;1.30;;;15.50;78.70;;;;;;10332579;28;20050;-38
2022/09/26 22:52:13;;;;;;;13.48;1.42;;;15.20;75.20;;;;;;10344426;28;20046;-37
2022/09/26 22:57:15;;;;;;;8.98;0.77;;;13.80;87.50;;;;;;10359296;28;20054;-38
2022/09/26 23:02:18;;;;;;;12.38;1.27;;;13.30;88.40;;;;;;10356353;28;20056;-38
2022/09/26 23:07:20;;;;;;;6.43;0.85;;;14.50;80.60;;;;;;10338807;28;20086;-41
2022/09/26 23:12:23;;;;;;;4.23;0.80;;;14.30;82.90;;;;;;10346144;28;20413;-38
2022/09/26 23:17:27;;;;;;;6.63;0.80;;;14.70;83.10;;;;;;10365170;28;20078;-38
2022/09/26 23:22:30;;;;;;;14.77;2.20;;;16.40;75.30;;;;;;10354118;28;20096;-38
2022/09/26 23:27:32;;;;;;;6.70;1.00;;;14.50;83.40;;;;;;10362291;28;20138;-36
2022/09/26 23:32:35;;;;;;;2.90;0.70;;;14.40;79.90;;;;;;10363948;28;20052;-37
2022/09/26 23:37:37;;;;;;;5.22;1.00;;;14.20;80.70;;;;;;10364897;28;20132;-38
2022/09/26 23:42:38;;;;;;;10.80;1.50;;;15.70;75.60;;;;;;10365336;28;20081;-39
2022/09/26 23:47:42;;;;;;;24.47;2.27;;;15.00;75.50;;;;;;10364428;28;20048;-36
2022/09/26 23:52:43;;;;;;;9.20;1.80;;;13.70;83.60;;;;;;10360442;28;20049;-39
2022/09/26 23:57:45;;;;;;;5.97;1.30;;;14.00;83.90;;;;;;10350015;28;20121;-37
